sensor_id;sensor_type;location;lat;lon;timestamp;P1;durP1;ratioP1;P2;durP2;ratioP2
15126;SDS011;7664;52.008;4.748;2023-04-03T00:01:29;3.13;;;1.10;;
15126;SDS011;7664;52.008;4.748;2023-04-03T00:03:59;2.30;;;0.93;;
15126;SDS011;7664;52.008;4.748;2023-04-03T00:06:28;1.90;;;0.90;;
15126;SDS011;7664;52.008;4.748;2023-04-03T00:08:56;2.88;;;1.10;;
15126;SDS011;7664;52.008;4.748;2023-04-03T00:11:24;1.25;;;0.77;;
15126;SDS011;7664;52.008;4.748;2023-04-03T00:13:53;1.67;;;0.85;;
15126;SDS011;7664;52.008;4.748;2023-04-03T00:16:23;1.27;;;0.73;;
15126;SDS011;7664;52.008;4.748;2023-04-03T00:18:54;0.90;;;0.73;;
15126;SDS011;7664;52.008;4.748;2023-04-03T00:21:24;1.70;;;1.23;;
15126;SDS011;7664;52.008;4.748;2023-04-03T00:23:53;2.75;;;0.88;;
15126;SDS011;7664;52.008;4.748;2023-04-03T00:26:21;2.00;;;0.90;;
15126;SDS011;7664;52.008;4.748;2023-04-03T00:28:52;2.60;;;0.73;;
15126;SDS011;7664;52.008;4.748;2023-04-03T00:31:20;1.77;;;1.00;;
15126;SDS011;7664;52.008;4.748;2023-04-03T00:33:49;1.42;;;1.10;;
15126;SDS011;7664;52.008;4.748;2023-04-03T00:36:17;1.30;;;0.80;;
15126;SDS011;7664;52.008;4.748;2023-04-03T00:38:47;5.47;;;1.20;;
15126;SDS011;7664;52.008;4.748;2023-04-03T00:41:15;1.40;;;1.05;;
15126;SDS011;7664;52.008;4.748;2023-04-03T00:43:44;3.60;;;1.13;;
15126;SDS011;7664;52.008;4.748;2023-04-03T00:46:12;3.38;;;0.85;;
15126;SDS011;7664;52.008;4.748;2023-04-03T00:48:41;1.05;;;0.93;;
15126;SDS011;7664;52.008;4.748;2023-04-03T00:51:13;1.83;;;0.77;;
15126;SDS011;7664;52.008;4.748;2023-04-03T00:53:43;1.42;;;0.70;;
15126;SDS011;7664;52.008;4.748;2023-04-03T00:56:15;1.77;;;0.80;;
15126;SDS011;7664;52.008;4.748;2023-04-03T00:58:45;1.65;;;0.98;;
15126;SDS011;7664;52.008;4.748;2023-04-03T01:01:18;2.17;;;1.20;;
15126;SDS011;7664;52.008;4.748;2023-04-03T01:03:48;1.60;;;0.90;;
15126;SDS011;7664;52.008;4.748;2023-04-03T01:06:23;1.88;;;0.90;;
15126;SDS011;7664;52.008;4.748;2023-04-03T01:09:00;2.70;;;1.30;;
15126;SDS011;7664;52.008;4.748;2023-04-03T01:11:30;2.17;;;1.27;;
15126;SDS011;7664;52.008;4.748;2023-04-03T01:14:01;2.60;;;0.95;;
15126;SDS011;7664;52.008;4.748;2023-04-03T01:16:34;5.00;;;1.08;;
15126;SDS011;7664;52.008;4.748;2023-04-03T01:19:03;2.53;;;1.17;;
15126;SDS011;7664;52.008;4.748;2023-04-03T01:24:29;2.35;;;1.00;;
15126;SDS011;7664;52.008;4.748;2023-04-03T01:27:03;2.15;;;1.10;;
15126;SDS011;7664;52.008;4.748;2023-04-03T01:29:32;2.58;;;1.20;;
15126;SDS011;7664;52.008;4.748;2023-04-03T01:32:02;1.65;;;1.00;;
15126;SDS011;7664;52.008;4.748;2023-04-03T01:34:33;1.55;;;1.35;;
15126;SDS011;7664;52.008;4.748;2023-04-03T01:37:05;3.45;;;1.20;;
15126;SDS011;7664;52.008;4.748;2023-04-03T01:39:33;1.27;;;0.98;;
15126;SDS011;7664;52.008;4.748;2023-04-03T01:42:02;2.17;;;0.95;;
15126;SDS011;7664;52.008;4.748;2023-04-03T01:44:34;1.65;;;0.90;;
15126;SDS011;7664;52.008;4.748;2023-04-03T01:47:06;8.32;;;2.05;;
15126;SDS011;7664;52.008;4.748;2023-04-03T01:49:38;5.15;;;1.20;;
15126;SDS011;7664;52.008;4.748;2023-04-03T01:52:08;2.10;;;1.38;;
15126;SDS011;7664;52.008;4.748;2023-04-03T01:54:40;2.35;;;1.02;;
15126;SDS011;7664;52.008;4.748;2023-04-03T01:57:09;1.95;;;1.05;;
15126;SDS011;7664;52.008;4.748;2023-04-03T01:59:38;1.67;;;0.95;;
15126;SDS011;7664;52.008;4.748;2023-04-03T02:02:08;1.73;;;0.90;;
15126;SDS011;7664;52.008;4.748;2023-04-03T02:04:38;1.73;;;1.10;;
15126;SDS011;7664;52.008;4.748;2023-04-03T02:07:09;1.42;;;1.00;;
15126;SDS011;7664;52.008;4.748;2023-04-03T02:09:39;3.17;;;0.98;;
15126;SDS011;7664;52.008;4.748;2023-04-03T02:12:08;1.98;;;0.95;;
15126;SDS011;7664;52.008;4.748;2023-04-03T02:14:36;2.53;;;0.90;;
15126;SDS011;7664;52.008;4.748;2023-04-03T02:17:05;3.15;;;1.20;;
15126;SDS011;7664;52.008;4.748;2023-04-03T02:19:37;2.05;;;1.20;;
15126;SDS011;7664;52.008;4.748;2023-04-03T02:22:06;2.95;;;1.15;;
15126;SDS011;7664;52.008;4.748;2023-04-03T02:24:37;1.08;;;0.90;;
15126;SDS011;7664;52.008;4.748;2023-04-03T02:27:06;4.38;;;1.30;;
15126;SDS011;7664;52.008;4.748;2023-04-03T02:29:35;1.48;;;0.77;;
15126;SDS011;7664;52.008;4.748;2023-04-03T02:32:04;2.25;;;1.00;;
15126;SDS011;7664;52.008;4.748;2023-04-03T02:34:35;1.50;;;0.85;;
15126;SDS011;7664;52.008;4.748;2023-04-03T02:37:06;2.00;;;1.05;;
15126;SDS011;7664;52.008;4.748;2023-04-03T02:39:37;3.60;;;1.00;;
15126;SDS011;7664;52.008;4.748;2023-04-03T02:42:08;2.22;;;0.90;;
15126;SDS011;7664;52.008;4.748;2023-04-03T02:44:37;4.38;;;1.10;;
15126;SDS011;7664;52.008;4.748;2023-04-03T02:47:11;1.75;;;1.05;;
15126;SDS011;7664;52.008;4.748;2023-04-03T02:49:39;5.28;;;1.23;;
15126;SDS011;7664;52.008;4.748;2023-04-03T02:52:12;4.35;;;1.20;;
15126;SDS011;7664;52.008;4.748;2023-04-03T02:54:41;3.58;;;1.33;;
15126;SDS011;7664;52.008;4.748;2023-04-03T02:57:16;3.80;;;1.40;;
15126;SDS011;7664;52.008;4.748;2023-04-03T02:59:46;4.07;;;1.40;;
15126;SDS011;7664;52.008;4.748;2023-04-03T03:02:14;2.13;;;0.82;;
15126;SDS011;7664;52.008;4.748;2023-04-03T03:04:42;1.38;;;0.90;;
15126;SDS011;7664;52.008;4.748;2023-04-03T03:07:12;2.05;;;1.23;;
15126;SDS011;7664;52.008;4.748;2023-04-03T03:09:41;2.80;;;0.90;;
15126;SDS011;7664;52.008;4.748;2023-04-03T03:12:09;2.75;;;1.00;;
15126;SDS011;7664;52.008;4.748;2023-04-03T03:14:39;2.10;;;0.95;;
15126;SDS011;7664;52.008;4.748;2023-04-03T03:17:10;4.03;;;1.35;;
15126;SDS011;7664;52.008;4.748;2023-04-03T03:19:38;4.05;;;1.30;;
15126;SDS011;7664;52.008;4.748;2023-04-03T03:22:07;1.50;;;1.10;;
15126;SDS011;7664;52.008;4.748;2023-04-03T03:24:37;3.17;;;1.10;;
15126;SDS011;7664;52.008;4.748;2023-04-03T03:27:08;3.35;;;1.20;;
15126;SDS011;7664;52.008;4.748;2023-04-03T03:29:36;1.88;;;1.20;;
15126;SDS011;7664;52.008;4.748;2023-04-03T03:32:05;2.92;;;1.10;;
15126;SDS011;7664;52.008;4.748;2023-04-03T03:34:35;1.38;;;0.98;;
15126;SDS011;7664;52.008;4.748;2023-04-03T03:37:04;3.63;;;1.30;;
15126;SDS011;7664;52.008;4.748;2023-04-03T03:39:33;3.25;;;1.30;;
15126;SDS011;7664;52.008;4.748;2023-04-03T03:42:02;2.03;;;1.10;;
15126;SDS011;7664;52.008;4.748;2023-04-03T03:44:31;4.50;;;0.95;;
15126;SDS011;7664;52.008;4.748;2023-04-03T03:46:59;6.45;;;1.63;;
15126;SDS011;7664;52.008;4.748;2023-04-03T03:49:29;1.95;;;1.20;;
15126;SDS011;7664;52.008;4.748;2023-04-03T03:52:02;4.47;;;1.40;;
15126;SDS011;7664;52.008;4.748;2023-04-03T03:54:30;1.80;;;1.13;;
15126;SDS011;7664;52.008;4.748;2023-04-03T03:56:58;3.00;;;1.33;;
15126;SDS011;7664;52.008;4.748;2023-04-03T03:59:30;5.13;;;1.10;;
15126;SDS011;7664;52.008;4.748;2023-04-03T04:01:59;1.95;;;1.17;;
15126;SDS011;7664;52.008;4.748;2023-04-03T04:04:32;2.00;;;1.15;;
15126;SDS011;7664;52.008;4.748;2023-04-03T04:07:00;3.67;;;1.40;;
15126;SDS011;7664;52.008;4.748;2023-04-03T04:09:30;4.47;;;1.38;;
15126;SDS011;7664;52.008;4.748;2023-04-03T04:12:04;2.33;;;1.20;;
15126;SDS011;7664;52.008;4.748;2023-04-03T04:14:35;4.32;;;1.10;;
15126;SDS011;7664;52.008;4.748;2023-04-03T04:17:06;1.90;;;1.10;;
15126;SDS011;7664;52.008;4.748;2023-04-03T04:19:36;2.08;;;1.30;;
15126;SDS011;7664;52.008;4.748;2023-04-03T04:22:04;3.47;;;1.35;;
15126;SDS011;7664;52.008;4.748;2023-04-03T04:24:33;2.25;;;1.20;;
15126;SDS011;7664;52.008;4.748;2023-04-03T04:27:03;2.85;;;1.60;;
15126;SDS011;7664;52.008;4.748;2023-04-03T04:29:37;4.47;;;1.33;;
15126;SDS011;7664;52.008;4.748;2023-04-03T04:32:07;2.97;;;1.20;;
15126;SDS011;7664;52.008;4.748;2023-04-03T04:34:42;3.28;;;1.30;;
15126;SDS011;7664;52.008;4.748;2023-04-03T04:37:13;3.25;;;1.33;;
15126;SDS011;7664;52.008;4.748;2023-04-03T04:39:42;2.97;;;1.20;;
15126;SDS011;7664;52.008;4.748;2023-04-03T04:42:10;3.10;;;1.27;;
15126;SDS011;7664;52.008;4.748;2023-04-03T04:44:46;3.63;;;2.00;;
15126;SDS011;7664;52.008;4.748;2023-04-03T04:47:15;3.13;;;1.20;;
15126;SDS011;7664;52.008;4.748;2023-04-03T04:49:44;4.15;;;1.30;;
15126;SDS011;7664;52.008;4.748;2023-04-03T04:52:14;9.15;;;1.52;;
15126;SDS011;7664;52.008;4.748;2023-04-03T04:54:44;7.15;;;1.65;;
15126;SDS011;7664;52.008;4.748;2023-04-03T04:57:12;1.95;;;1.30;;
15126;SDS011;7664;52.008;4.748;2023-04-03T04:59:43;2.80;;;1.52;;
15126;SDS011;7664;52.008;4.748;2023-04-03T05:02:13;3.03;;;1.45;;
15126;SDS011;7664;52.008;4.748;2023-04-03T05:04:43;4.00;;;1.30;;
15126;SDS011;7664;52.008;4.748;2023-04-03T05:07:18;2.40;;;1.40;;
15126;SDS011;7664;52.008;4.748;2023-04-03T05:09:46;1.75;;;1.20;;
15126;SDS011;7664;52.008;4.748;2023-04-03T05:12:21;3.85;;;1.58;;
15126;SDS011;7664;52.008;4.748;2023-04-03T05:14:57;2.10;;;1.08;;
15126;SDS011;7664;52.008;4.748;2023-04-03T05:17:31;2.20;;;1.20;;
15126;SDS011;7664;52.008;4.748;2023-04-03T05:20:00;2.85;;;1.63;;
15126;SDS011;7664;52.008;4.748;2023-04-03T05:22:29;5.15;;;1.70;;
15126;SDS011;7664;52.008;4.748;2023-04-03T05:25:04;3.22;;;1.30;;
15126;SDS011;7664;52.008;4.748;2023-04-03T05:27:33;3.28;;;1.40;;
15126;SDS011;7664;52.008;4.748;2023-04-03T05:30:06;2.28;;;1.27;;
15126;SDS011;7664;52.008;4.748;2023-04-03T05:32:38;4.57;;;1.40;;
15126;SDS011;7664;52.008;4.748;2023-04-03T05:35:21;4.45;;;1.50;;
15126;SDS011;7664;52.008;4.748;2023-04-03T05:37:53;2.65;;;1.45;;
15126;SDS011;7664;52.008;4.748;2023-04-03T05:40:22;1.83;;;1.17;;
15126;SDS011;7664;52.008;4.748;2023-04-03T05:42:53;3.78;;;1.13;;
15126;SDS011;7664;52.008;4.748;2023-04-03T05:45:27;3.67;;;1.27;;
15126;SDS011;7664;52.008;4.748;2023-04-03T05:47:58;3.65;;;1.52;;
15126;SDS011;7664;52.008;4.748;2023-04-03T05:50:28;2.70;;;1.48;;
15126;SDS011;7664;52.008;4.748;2023-04-03T05:52:57;2.45;;;1.40;;
15126;SDS011;7664;52.008;4.748;2023-04-03T05:55:28;4.50;;;1.52;;
15126;SDS011;7664;52.008;4.748;2023-04-03T05:57:57;11.15;;;1.40;;
15126;SDS011;7664;52.008;4.748;2023-04-03T06:00:25;3.60;;;1.35;;
15126;SDS011;7664;52.008;4.748;2023-04-03T06:03:01;3.40;;;1.83;;
15126;SDS011;7664;52.008;4.748;2023-04-03T06:05:29;6.03;;;1.45;;
15126;SDS011;7664;52.008;4.748;2023-04-03T06:07:58;7.50;;;1.90;;
15126;SDS011;7664;52.008;4.748;2023-04-03T06:10:26;5.47;;;2.35;;
15126;SDS011;7664;52.008;4.748;2023-04-03T06:12:55;2.20;;;1.40;;
15126;SDS011;7664;52.008;4.748;2023-04-03T06:15:25;6.10;;;1.60;;
15126;SDS011;7664;52.008;4.748;2023-04-03T06:17:54;6.50;;;1.55;;
15126;SDS011;7664;52.008;4.748;2023-04-03T06:20:26;1.98;;;1.17;;
15126;SDS011;7664;52.008;4.748;2023-04-03T06:22:57;2.80;;;1.60;;
15126;SDS011;7664;52.008;4.748;2023-04-03T06:25:27;3.78;;;1.10;;
15126;SDS011;7664;52.008;4.748;2023-04-03T06:27:55;5.57;;;1.77;;
15126;SDS011;7664;52.008;4.748;2023-04-03T06:30:23;3.08;;;1.15;;
15126;SDS011;7664;52.008;4.748;2023-04-03T06:32:54;4.72;;;1.58;;
15126;SDS011;7664;52.008;4.748;2023-04-03T06:35:22;6.00;;;1.40;;
15126;SDS011;7664;52.008;4.748;2023-04-03T06:37:53;2.67;;;1.30;;
15126;SDS011;7664;52.008;4.748;2023-04-03T06:40:25;6.55;;;1.48;;
15126;SDS011;7664;52.008;4.748;2023-04-03T06:42:54;2.42;;;1.30;;
15126;SDS011;7664;52.008;4.748;2023-04-03T06:45:24;2.53;;;1.38;;
15126;SDS011;7664;52.008;4.748;2023-04-03T06:47:53;3.25;;;1.60;;
15126;SDS011;7664;52.008;4.748;2023-04-03T06:50:22;3.42;;;1.40;;
15126;SDS011;7664;52.008;4.748;2023-04-03T06:52:50;2.25;;;1.17;;
15126;SDS011;7664;52.008;4.748;2023-04-03T06:55:24;3.45;;;1.35;;
15126;SDS011;7664;52.008;4.748;2023-04-03T06:57:53;3.60;;;1.20;;
15126;SDS011;7664;52.008;4.748;2023-04-03T07:00:23;4.97;;;1.67;;
15126;SDS011;7664;52.008;4.748;2023-04-03T07:02:52;3.80;;;1.30;;
15126;SDS011;7664;52.008;4.748;2023-04-03T07:05:22;3.15;;;1.10;;
15126;SDS011;7664;52.008;4.748;2023-04-03T07:07:51;5.75;;;1.20;;
15126;SDS011;7664;52.008;4.748;2023-04-03T07:10:20;2.67;;;1.25;;
15126;SDS011;7664;52.008;4.748;2023-04-03T07:12:49;3.67;;;1.38;;
15126;SDS011;7664;52.008;4.748;2023-04-03T07:15:22;2.97;;;1.20;;
15126;SDS011;7664;52.008;4.748;2023-04-03T07:17:51;2.42;;;1.10;;
15126;SDS011;7664;52.008;4.748;2023-04-03T07:20:19;3.50;;;1.65;;
15126;SDS011;7664;52.008;4.748;2023-04-03T07:22:48;3.53;;;1.20;;
15126;SDS011;7664;52.008;4.748;2023-04-03T07:25:16;3.08;;;1.30;;
15126;SDS011;7664;52.008;4.748;2023-04-03T07:27:45;4.53;;;1.33;;
15126;SDS011;7664;52.008;4.748;2023-04-03T07:30:15;4.93;;;1.80;;
15126;SDS011;7664;52.008;4.748;2023-04-03T07:32:44;4.75;;;1.30;;
15126;SDS011;7664;52.008;4.748;2023-04-03T07:35:13;3.90;;;1.20;;
15126;SDS011;7664;52.008;4.748;2023-04-03T07:37:41;6.22;;;1.55;;
15126;SDS011;7664;52.008;4.748;2023-04-03T07:40:10;3.33;;;1.17;;
15126;SDS011;7664;52.008;4.748;2023-04-03T07:42:38;8.27;;;1.50;;
15126;SDS011;7664;52.008;4.748;2023-04-03T07:45:06;3.80;;;1.17;;
15126;SDS011;7664;52.008;4.748;2023-04-03T07:47:36;2.05;;;1.52;;
15126;SDS011;7664;52.008;4.748;2023-04-03T07:50:05;4.10;;;1.20;;
15126;SDS011;7664;52.008;4.748;2023-04-03T07:52:36;3.63;;;1.20;;
15126;SDS011;7664;52.008;4.748;2023-04-03T07:55:07;4.18;;;1.40;;
15126;SDS011;7664;52.008;4.748;2023-04-03T07:57:36;3.45;;;1.38;;
15126;SDS011;7664;52.008;4.748;2023-04-03T08:00:08;2.92;;;1.20;;
15126;SDS011;7664;52.008;4.748;2023-04-03T08:02:41;4.18;;;1.15;;
15126;SDS011;7664;52.008;4.748;2023-04-03T08:05:17;6.88;;;1.73;;
15126;SDS011;7664;52.008;4.748;2023-04-03T08:07:45;4.88;;;2.03;;
15126;SDS011;7664;52.008;4.748;2023-04-03T08:10:14;5.70;;;1.60;;
15126;SDS011;7664;52.008;4.748;2023-04-03T08:12:45;7.00;;;1.40;;
15126;SDS011;7664;52.008;4.748;2023-04-03T08:15:13;4.15;;;0.82;;
15126;SDS011;7664;52.008;4.748;2023-04-03T08:17:50;2.72;;;1.45;;
15126;SDS011;7664;52.008;4.748;2023-04-03T08:20:18;7.78;;;2.13;;
15126;SDS011;7664;52.008;4.748;2023-04-03T08:22:47;6.07;;;1.40;;
15126;SDS011;7664;52.008;4.748;2023-04-03T08:25:15;1.98;;;1.10;;
15126;SDS011;7664;52.008;4.748;2023-04-03T08:27:48;4.53;;;1.20;;
15126;SDS011;7664;52.008;4.748;2023-04-03T08:30:17;4.95;;;1.67;;
15126;SDS011;7664;52.008;4.748;2023-04-03T08:32:45;5.38;;;1.15;;
15126;SDS011;7664;52.008;4.748;2023-04-03T08:35:18;4.82;;;1.25;;
15126;SDS011;7664;52.008;4.748;2023-04-03T08:37:47;5.07;;;1.40;;
15126;SDS011;7664;52.008;4.748;2023-04-03T08:40:17;1.90;;;1.23;;
15126;SDS011;7664;52.008;4.748;2023-04-03T08:42:49;2.25;;;1.33;;
15126;SDS011;7664;52.008;4.748;2023-04-03T08:45:25;2.42;;;1.20;;
15126;SDS011;7664;52.008;4.748;2023-04-03T08:47:55;1.80;;;1.10;;
15126;SDS011;7664;52.008;4.748;2023-04-03T08:50:30;4.85;;;0.88;;
15126;SDS011;7664;52.008;4.748;2023-04-03T08:53:01;4.35;;;1.15;;
15126;SDS011;7664;52.008;4.748;2023-04-03T08:55:33;2.63;;;0.82;;
15126;SDS011;7664;52.008;4.748;2023-04-03T08:58:06;3.03;;;1.35;;
15126;SDS011;7664;52.008;4.748;2023-04-03T09:00:37;1.58;;;0.90;;
15126;SDS011;7664;52.008;4.748;2023-04-03T09:03:12;1.08;;;0.90;;
15126;SDS011;7664;52.008;4.748;2023-04-03T09:05:43;2.40;;;0.80;;
15126;SDS011;7664;52.008;4.748;2023-04-03T09:08:14;3.53;;;1.17;;
15126;SDS011;7664;52.008;4.748;2023-04-03T09:10:47;1.08;;;0.75;;
15126;SDS011;7664;52.008;4.748;2023-04-03T09:13:20;1.48;;;0.75;;
15126;SDS011;7664;52.008;4.748;2023-04-03T09:15:54;2.70;;;0.90;;
15126;SDS011;7664;52.008;4.748;2023-04-03T09:18:25;0.73;;;0.65;;
15126;SDS011;7664;52.008;4.748;2023-04-03T09:20:59;2.25;;;0.95;;
15126;SDS011;7664;52.008;4.748;2023-04-03T09:23:30;2.58;;;0.80;;
15126;SDS011;7664;52.008;4.748;2023-04-03T09:26:01;1.00;;;0.55;;
15126;SDS011;7664;52.008;4.748;2023-04-03T09:28:31;0.60;;;0.60;;
15126;SDS011;7664;52.008;4.748;2023-04-03T09:31:19;0.95;;;0.60;;
15126;SDS011;7664;52.008;4.748;2023-04-03T09:33:48;1.08;;;0.70;;
15126;SDS011;7664;52.008;4.748;2023-04-03T09:39:05;5.35;;;0.68;;
15126;SDS011;7664;52.008;4.748;2023-04-03T09:41:34;1.75;;;0.70;;
15126;SDS011;7664;52.008;4.748;2023-04-03T09:44:03;1.38;;;0.70;;
15126;SDS011;7664;52.008;4.748;2023-04-03T09:46:32;3.30;;;0.98;;
15126;SDS011;7664;52.008;4.748;2023-04-03T09:49:02;1.42;;;0.75;;
15126;SDS011;7664;52.008;4.748;2023-04-03T09:51:35;2.53;;;0.90;;
15126;SDS011;7664;52.008;4.748;2023-04-03T09:56:50;2.47;;;0.70;;
15126;SDS011;7664;52.008;4.748;2023-04-03T09:59:19;1.00;;;0.73;;
15126;SDS011;7664;52.008;4.748;2023-04-03T10:01:56;2.47;;;0.60;;
15126;SDS011;7664;52.008;4.748;2023-04-03T10:04:25;1.50;;;0.57;;
15126;SDS011;7664;52.008;4.748;2023-04-03T10:06:54;0.98;;;0.40;;
15126;SDS011;7664;52.008;4.748;2023-04-03T10:09:23;1.85;;;0.60;;
15126;SDS011;7664;52.008;4.748;2023-04-03T10:12:00;0.90;;;0.43;;
15126;SDS011;7664;52.008;4.748;2023-04-03T10:14:31;1.25;;;0.60;;
15126;SDS011;7664;52.008;4.748;2023-04-03T10:17:02;0.30;;;0.30;;
15126;SDS011;7664;52.008;4.748;2023-04-03T10:19:32;0.80;;;0.50;;
15126;SDS011;7664;52.008;4.748;2023-04-03T10:22:03;1.58;;;0.70;;
15126;SDS011;7664;52.008;4.748;2023-04-03T10:24:36;0.55;;;0.40;;
15126;SDS011;7664;52.008;4.748;2023-04-03T10:27:09;0.82;;;0.50;;
15126;SDS011;7664;52.008;4.748;2023-04-03T10:29:40;0.38;;;0.30;;
15126;SDS011;7664;52.008;4.748;2023-04-03T10:32:17;1.20;;;0.47;;
15126;SDS011;7664;52.008;4.748;2023-04-03T10:34:48;1.20;;;0.50;;
15126;SDS011;7664;52.008;4.748;2023-04-03T10:37:24;1.30;;;0.45;;
15126;SDS011;7664;52.008;4.748;2023-04-03T10:39:57;1.70;;;0.60;;
15126;SDS011;7664;52.008;4.748;2023-04-03T10:42:30;0.90;;;0.40;;
15126;SDS011;7664;52.008;4.748;2023-04-03T10:45:08;0.40;;;0.30;;
15126;SDS011;7664;52.008;4.748;2023-04-03T10:47:44;1.55;;;0.50;;
15126;SDS011;7664;52.008;4.748;2023-04-03T10:50:22;1.88;;;0.40;;
15126;SDS011;7664;52.008;4.748;2023-04-03T10:52:56;1.77;;;0.38;;
15126;SDS011;7664;52.008;4.748;2023-04-03T10:55:30;1.02;;;0.47;;
15126;SDS011;7664;52.008;4.748;2023-04-03T10:58:01;1.00;;;0.50;;
15126;SDS011;7664;52.008;4.748;2023-04-03T11:00:33;0.32;;;0.25;;
15126;SDS011;7664;52.008;4.748;2023-04-03T11:03:05;0.75;;;0.38;;
15126;SDS011;7664;52.008;4.748;2023-04-03T11:05:34;0.45;;;0.30;;
15126;SDS011;7664;52.008;4.748;2023-04-03T11:08:07;0.60;;;0.38;;
15126;SDS011;7664;52.008;4.748;2023-04-03T11:10:40;1.00;;;0.30;;
15126;SDS011;7664;52.008;4.748;2023-04-03T11:13:15;1.45;;;0.43;;
15126;SDS011;7664;52.008;4.748;2023-04-03T11:15:45;0.10;;;0.10;;
15126;SDS011;7664;52.008;4.748;2023-04-03T11:18:13;1.95;;;0.50;;
15126;SDS011;7664;52.008;4.748;2023-04-03T11:20:44;1.08;;;0.22;;
15126;SDS011;7664;52.008;4.748;2023-04-03T11:23:17;0.20;;;0.20;;
15126;SDS011;7664;52.008;4.748;2023-04-03T11:25:48;0.50;;;0.25;;
15126;SDS011;7664;52.008;4.748;2023-04-03T11:28:20;1.77;;;0.35;;
15126;SDS011;7664;52.008;4.748;2023-04-03T11:30:49;0.25;;;0.20;;
15126;SDS011;7664;52.008;4.748;2023-04-03T11:36:11;0.73;;;0.20;;
15126;SDS011;7664;52.008;4.748;2023-04-03T11:38:54;0.25;;;0.20;;
15126;SDS011;7664;52.008;4.748;2023-04-03T11:41:25;0.80;;;0.30;;
15126;SDS011;7664;52.008;4.748;2023-04-03T11:43:58;0.30;;;0.20;;
15126;SDS011;7664;52.008;4.748;2023-04-03T11:46:48;0.65;;;0.40;;
15126;SDS011;7664;52.008;4.748;2023-04-03T11:52:09;0.30;;;0.20;;
15126;SDS011;7664;52.008;4.748;2023-04-03T11:54:47;0.20;;;0.10;;
15126;SDS011;7664;52.008;4.748;2023-04-03T11:57:23;0.20;;;0.20;;
15126;SDS011;7664;52.008;4.748;2023-04-03T12:02:59;0.38;;;0.38;;
15126;SDS011;7664;52.008;4.748;2023-04-03T12:05:29;0.55;;;0.32;;
15126;SDS011;7664;52.008;4.748;2023-04-03T12:08:22;0.90;;;0.30;;
15126;SDS011;7664;52.008;4.748;2023-04-03T12:13:36;1.75;;;0.30;;
15126;SDS011;7664;52.008;4.748;2023-04-03T12:16:05;0.38;;;0.25;;
15126;SDS011;7664;52.008;4.748;2023-04-03T12:21:13;1.20;;;0.55;;
15126;SDS011;7664;52.008;4.748;2023-04-03T12:24:02;1.08;;;0.30;;
15126;SDS011;7664;52.008;4.748;2023-04-03T12:26:32;0.60;;;0.30;;
15126;SDS011;7664;52.008;4.748;2023-04-03T12:29:15;0.70;;;0.28;;
15126;SDS011;7664;52.008;4.748;2023-04-03T12:31:46;2.00;;;0.57;;
15126;SDS011;7664;52.008;4.748;2023-04-03T12:34:19;0.65;;;0.40;;
15126;SDS011;7664;52.008;4.748;2023-04-03T12:36:54;1.40;;;0.40;;
15126;SDS011;7664;52.008;4.748;2023-04-03T12:39:33;0.73;;;0.40;;
15126;SDS011;7664;52.008;4.748;2023-04-03T12:42:13;0.85;;;0.50;;
15126;SDS011;7664;52.008;4.748;2023-04-03T12:44:46;0.40;;;0.30;;
15126;SDS011;7664;52.008;4.748;2023-04-03T12:47:22;1.27;;;0.50;;
15126;SDS011;7664;52.008;4.748;2023-04-03T12:49:50;0.65;;;0.40;;
15126;SDS011;7664;52.008;4.748;2023-04-03T12:52:25;0.90;;;0.73;;
15126;SDS011;7664;52.008;4.748;2023-04-03T12:54:56;1.00;;;0.43;;
15126;SDS011;7664;52.008;4.748;2023-04-03T12:57:26;1.77;;;0.50;;
15126;SDS011;7664;52.008;4.748;2023-04-03T12:59:54;1.33;;;0.50;;
15126;SDS011;7664;52.008;4.748;2023-04-03T13:02:23;1.20;;;0.60;;
15126;SDS011;7664;52.008;4.748;2023-04-03T13:04:53;1.80;;;0.47;;
15126;SDS011;7664;52.008;4.748;2023-04-03T13:07:26;0.90;;;0.50;;
15126;SDS011;7664;52.008;4.748;2023-04-03T13:10:09;0.40;;;0.40;;
15126;SDS011;7664;52.008;4.748;2023-04-03T13:12:45;2.00;;;0.77;;
15126;SDS011;7664;52.008;4.748;2023-04-03T13:15:15;4.43;;;0.82;;
15126;SDS011;7664;52.008;4.748;2023-04-03T13:17:45;1.50;;;0.68;;
15126;SDS011;7664;52.008;4.748;2023-04-03T13:20:16;1.65;;;0.80;;
15126;SDS011;7664;52.008;4.748;2023-04-03T13:22:49;2.78;;;1.08;;
15126;SDS011;7664;52.008;4.748;2023-04-03T13:25:18;0.65;;;0.47;;
15126;SDS011;7664;52.008;4.748;2023-04-03T13:27:48;1.65;;;0.60;;
15126;SDS011;7664;52.008;4.748;2023-04-03T13:30:27;0.80;;;0.40;;
15126;SDS011;7664;52.008;4.748;2023-04-03T13:32:56;2.72;;;0.68;;
15126;SDS011;7664;52.008;4.748;2023-04-03T13:35:27;0.35;;;0.30;;
15126;SDS011;7664;52.008;4.748;2023-04-03T13:37:57;1.10;;;0.73;;
15126;SDS011;7664;52.008;4.748;2023-04-03T13:40:27;0.38;;;0.35;;
15126;SDS011;7664;52.008;4.748;2023-04-03T13:43:16;1.20;;;0.43;;
15126;SDS011;7664;52.008;4.748;2023-04-03T13:45:54;3.33;;;0.82;;
15126;SDS011;7664;52.008;4.748;2023-04-03T13:48:23;1.85;;;0.68;;
15126;SDS011;7664;52.008;4.748;2023-04-03T13:51:01;1.83;;;0.80;;
15126;SDS011;7664;52.008;4.748;2023-04-03T13:53:31;0.50;;;0.45;;
15126;SDS011;7664;52.008;4.748;2023-04-03T13:56:05;0.75;;;0.50;;
15126;SDS011;7664;52.008;4.748;2023-04-03T13:58:34;1.58;;;0.70;;
15126;SDS011;7664;52.008;4.748;2023-04-03T14:01:10;2.00;;;0.50;;
15126;SDS011;7664;52.008;4.748;2023-04-03T14:03:41;0.73;;;0.40;;
15126;SDS011;7664;52.008;4.748;2023-04-03T14:06:10;0.93;;;0.57;;
15126;SDS011;7664;52.008;4.748;2023-04-03T14:08:41;1.08;;;0.50;;
15126;SDS011;7664;52.008;4.748;2023-04-03T14:11:11;2.35;;;0.70;;
15126;SDS011;7664;52.008;4.748;2023-04-03T14:13:41;1.95;;;0.60;;
15126;SDS011;7664;52.008;4.748;2023-04-03T14:16:12;1.08;;;0.65;;
15126;SDS011;7664;52.008;4.748;2023-04-03T14:18:43;1.50;;;0.50;;
15126;SDS011;7664;52.008;4.748;2023-04-03T14:21:12;0.82;;;0.60;;
15126;SDS011;7664;52.008;4.748;2023-04-03T14:23:42;1.77;;;0.40;;
15126;SDS011;7664;52.008;4.748;2023-04-03T14:26:11;1.27;;;0.40;;
15126;SDS011;7664;52.008;4.748;2023-04-03T14:28:40;1.02;;;0.60;;
15126;SDS011;7664;52.008;4.748;2023-04-03T14:31:10;0.60;;;0.47;;
15126;SDS011;7664;52.008;4.748;2023-04-03T14:33:39;1.33;;;0.68;;
15126;SDS011;7664;52.008;4.748;2023-04-03T14:36:12;1.48;;;0.50;;
15126;SDS011;7664;52.008;4.748;2023-04-03T14:38:43;3.05;;;0.68;;
15126;SDS011;7664;52.008;4.748;2023-04-03T14:41:12;1.75;;;0.93;;
15126;SDS011;7664;52.008;4.748;2023-04-03T14:43:42;1.73;;;0.70;;
15126;SDS011;7664;52.008;4.748;2023-04-03T14:46:12;3.45;;;0.70;;
15126;SDS011;7664;52.008;4.748;2023-04-03T14:48:41;1.77;;;0.63;;
15126;SDS011;7664;52.008;4.748;2023-04-03T14:51:10;2.95;;;0.60;;
15126;SDS011;7664;52.008;4.748;2023-04-03T14:53:39;1.50;;;0.57;;
15126;SDS011;7664;52.008;4.748;2023-04-03T14:56:12;1.20;;;0.50;;
15126;SDS011;7664;52.008;4.748;2023-04-03T14:58:40;1.65;;;0.57;;
15126;SDS011;7664;52.008;4.748;2023-04-03T15:01:09;2.20;;;0.60;;
15126;SDS011;7664;52.008;4.748;2023-04-03T15:03:40;3.25;;;0.70;;
15126;SDS011;7664;52.008;4.748;2023-04-03T15:06:09;1.70;;;0.60;;
15126;SDS011;7664;52.008;4.748;2023-04-03T15:08:38;1.35;;;0.60;;
15126;SDS011;7664;52.008;4.748;2023-04-03T15:11:07;0.80;;;0.50;;
15126;SDS011;7664;52.008;4.748;2023-04-03T15:13:37;1.65;;;0.52;;
15126;SDS011;7664;52.008;4.748;2023-04-03T15:16:08;1.40;;;0.82;;
15126;SDS011;7664;52.008;4.748;2023-04-03T15:18:40;0.45;;;0.38;;
15126;SDS011;7664;52.008;4.748;2023-04-03T15:21:09;2.42;;;0.75;;
15126;SDS011;7664;52.008;4.748;2023-04-03T15:23:39;0.80;;;0.60;;
15126;SDS011;7664;52.008;4.748;2023-04-03T15:26:08;1.90;;;1.33;;
15126;SDS011;7664;52.008;4.748;2023-04-03T15:28:39;3.67;;;1.25;;
15126;SDS011;7664;52.008;4.748;2023-04-03T15:31:08;2.03;;;0.82;;
15126;SDS011;7664;52.008;4.748;2023-04-03T15:33:36;3.88;;;0.90;;
15126;SDS011;7664;52.008;4.748;2023-04-03T15:36:05;1.73;;;0.75;;
15126;SDS011;7664;52.008;4.748;2023-04-03T15:38:54;1.73;;;0.73;;
15126;SDS011;7664;52.008;4.748;2023-04-03T15:41:22;2.78;;;1.40;;
15126;SDS011;7664;52.008;4.748;2023-04-03T15:43:52;3.60;;;1.50;;
15126;SDS011;7664;52.008;4.748;2023-04-03T15:46:20;2.67;;;1.20;;